Terminal Aerodrome Forecast
Issued by NWS

Home | Current Version | Previous Version | Text Only | Print | Product List | Glossary On
Versions: 1 2 3 4 5 6 7 8 9 10 11 12 13 14
000
FTPQ31 PGUM 282327
TAFGUM
TAF

TAF
PGSN 282327Z 2900/2924 08015KT P6SM VCTS SCT015CB SCT025 BKN120
      TEMPO 2900/2903 3SM +SHRA SCT015 OVC025
     FM290800 10011KT P6SM VCSH FEW016 SCT040 BKN120=

USA.gov is the U.S. government's official web portal to all federal, state and local government web resources and services.